createdAt,value
2023-01-26T00:01:29.142Z,20.00
2023-01-26T00:03:57.741Z,20.90
2023-01-26T00:06:26.115Z,20.23
2023-01-26T00:08:56.985Z,19.07
2023-01-26T00:11:27.566Z,20.40
2023-01-26T00:13:56.250Z,19.87
2023-01-26T00:16:24.393Z,21.27
2023-01-26T00:18:52.430Z,21.50
2023-01-26T00:21:22.162Z,21.27
2023-01-26T00:23:51.391Z,22.20
2023-01-26T00:26:22.734Z,21.97
2023-01-26T00:28:52.084Z,20.10
2023-01-26T00:31:22.037Z,21.87
2023-01-26T00:33:50.295Z,19.60
2023-01-26T00:36:18.130Z,20.73
2023-01-26T00:38:46.181Z,21.60
2023-01-26T00:41:34.198Z,21.07
2023-01-26T00:44:03.384Z,20.40
2023-01-26T00:46:31.329Z,22.10
2023-01-26T00:49:00.824Z,18.90
2023-01-26T00:51:29.003Z,19.57
2023-01-26T00:53:56.826Z,19.57
2023-01-26T00:56:27.881Z,19.80
2023-01-26T00:58:55.767Z,19.77
2023-01-26T01:01:25.045Z,21.57
2023-01-26T01:03:53.065Z,19.50
2023-01-26T01:06:20.898Z,19.67
2023-01-26T01:08:48.689Z,20.17
2023-01-26T01:11:16.748Z,19.57
2023-01-26T01:13:44.697Z,18.33
2023-01-26T01:16:15.360Z,18.73
2023-01-26T01:18:45.088Z,18.20
2023-01-26T01:21:15.014Z,18.30
2023-01-26T01:23:43.703Z,17.17
2023-01-26T01:26:12.238Z,17.07
2023-01-26T01:28:41.823Z,16.13
2023-01-26T01:31:11.573Z,16.20
2023-01-26T01:33:39.513Z,16.57
2023-01-26T01:36:11.740Z,17.40
2023-01-26T01:38:39.566Z,16.00
2023-01-26T01:41:07.755Z,15.53
2023-01-26T01:43:36.298Z,16.30
2023-01-26T01:46:05.889Z,15.47
2023-01-26T01:48:39.509Z,15.13
2023-01-26T01:51:13.821Z,15.50
2023-01-26T01:53:46.682Z,16.40
2023-01-26T01:56:21.512Z,15.37
2023-01-26T01:58:52.396Z,17.17
2023-01-26T02:01:20.597Z,16.30
2023-01-26T02:03:51.725Z,16.00
2023-01-26T02:06:24.330Z,16.50
2023-01-26T02:08:54.514Z,16.60
2023-01-26T02:11:26.568Z,15.57
2023-01-26T02:13:55.405Z,16.13
2023-01-26T02:16:23.446Z,16.70
2023-01-26T02:18:51.297Z,16.60
2023-01-26T02:21:22.595Z,15.33
2023-01-26T02:24:00.125Z,17.03
2023-01-26T02:26:32.034Z,15.40
2023-01-26T02:29:00.659Z,15.83
2023-01-26T02:31:29.173Z,15.47
2023-01-26T02:33:56.998Z,16.03
2023-01-26T02:36:27.036Z,17.37
2023-01-26T02:39:03.722Z,15.77
2023-01-26T02:41:50.167Z,16.50
2023-01-26T02:44:18.396Z,15.20
2023-01-26T02:46:46.150Z,16.10
2023-01-26T02:49:31.367Z,16.50
2023-01-26T02:51:59.585Z,16.20
2023-01-26T02:54:44.752Z,16.47
2023-01-26T02:57:13.857Z,15.60
2023-01-26T02:59:41.786Z,16.53
2023-01-26T03:02:09.812Z,15.90
2023-01-26T03:04:37.613Z,15.70
2023-01-26T03:07:05.384Z,16.63
2023-01-26T03:09:33.174Z,17.00
2023-01-26T03:12:00.975Z,17.67
2023-01-26T03:14:30.166Z,16.80
2023-01-26T03:16:57.963Z,15.63
2023-01-26T03:19:43.437Z,16.10
2023-01-26T03:22:29.480Z,15.53
2023-01-26T03:25:14.752Z,15.73
2023-01-26T03:27:44.503Z,15.60
2023-01-26T03:30:16.097Z,15.43
2023-01-26T03:32:44.182Z,17.13
2023-01-26T03:35:15.265Z,15.67
2023-01-26T03:37:43.752Z,15.03
2023-01-26T03:40:32.153Z,14.10
2023-01-26T03:43:17.533Z,14.30
2023-01-26T03:46:04.386Z,15.20
2023-01-26T03:48:49.935Z,14.40
2023-01-26T03:51:35.334Z,14.33
2023-01-26T03:54:21.047Z,15.47
2023-01-26T03:56:48.875Z,15.27
2023-01-26T03:59:16.945Z,14.80
2023-01-26T04:02:06.124Z,15.73
2023-01-26T04:04:51.397Z,15.67
2023-01-26T04:07:37.321Z,14.23
2023-01-26T04:10:05.598Z,16.00
2023-01-26T04:12:33.379Z,14.67
2023-01-26T04:15:18.483Z,14.70
2023-01-26T04:18:05.383Z,13.93
2023-01-26T04:20:50.921Z,13.70
2023-01-26T04:23:19.425Z,15.43
2023-01-26T04:25:48.173Z,14.30
2023-01-26T04:28:16.264Z,15.10
2023-01-26T04:30:44.188Z,15.97
2023-01-26T04:33:13.420Z,15.20
2023-01-26T04:35:41.186Z,15.60
2023-01-26T04:38:08.955Z,14.50
2023-01-26T04:40:36.762Z,17.00
2023-01-26T04:43:04.542Z,17.03
2023-01-26T04:45:32.384Z,14.70
2023-01-26T04:48:00.189Z,16.37
2023-01-26T04:50:29.321Z,14.33
2023-01-26T04:52:57.111Z,15.87
2023-01-26T04:55:24.927Z,16.67
2023-01-26T04:57:52.707Z,15.30
2023-01-26T05:00:21.432Z,15.60
2023-01-26T05:02:49.231Z,15.23
2023-01-26T05:05:17.105Z,14.97
2023-01-26T05:07:46.217Z,14.13
2023-01-26T05:10:15.819Z,13.80
2023-01-26T05:12:43.810Z,14.03
2023-01-26T05:15:11.958Z,13.27
2023-01-26T05:17:39.743Z,13.27
2023-01-26T05:20:08.910Z,13.13
2023-01-26T05:22:36.905Z,13.60
2023-01-26T05:25:06.709Z,14.90
2023-01-26T05:27:34.510Z,13.60
2023-01-26T05:30:02.377Z,13.73
2023-01-26T05:32:31.008Z,12.20
2023-01-26T05:34:59.150Z,14.67
2023-01-26T05:37:28.136Z,13.63
2023-01-26T05:39:56.327Z,14.17
2023-01-26T05:42:25.893Z,14.33
2023-01-26T05:44:54.057Z,13.20
2023-01-26T05:47:21.928Z,12.63
2023-01-26T05:49:50.324Z,12.80
2023-01-26T05:52:19.526Z,12.97
2023-01-26T05:54:47.563Z,12.80
2023-01-26T05:57:16.836Z,11.90
2023-01-26T05:59:46.081Z,11.70
2023-01-26T06:02:14.003Z,12.50
2023-01-26T06:04:41.875Z,11.93
2023-01-26T06:07:13.550Z,10.70
2023-01-26T06:09:41.500Z,10.50
2023-01-26T06:12:15.195Z,10.57
2023-01-26T06:14:43.035Z,10.97
2023-01-26T06:17:12.385Z,11.17
2023-01-26T06:19:40.214Z,11.10
2023-01-26T06:22:08.983Z,12.13
2023-01-26T06:24:36.848Z,11.53
2023-01-26T06:27:06.980Z,11.63
2023-01-26T06:29:35.024Z,11.23
2023-01-26T06:32:02.837Z,10.57
2023-01-26T06:34:32.931Z,10.93
2023-01-26T06:37:00.824Z,11.13
2023-01-26T06:39:28.688Z,10.23
2023-01-26T06:41:56.874Z,11.27
2023-01-26T06:44:24.688Z,11.00
2023-01-26T06:46:52.523Z,10.97
2023-01-26T06:49:20.362Z,10.67
2023-01-26T06:51:59.275Z,10.80
2023-01-26T06:54:27.104Z,11.87
2023-01-26T06:56:54.898Z,10.90
2023-01-26T06:59:22.760Z,11.57
2023-01-26T07:01:50.706Z,12.00
2023-01-26T07:04:18.607Z,12.00
2023-01-26T07:06:46.488Z,11.40
2023-01-26T07:09:15.628Z,14.10
2023-01-26T07:11:43.420Z,13.20
2023-01-26T07:14:11.217Z,11.97
2023-01-26T07:16:39.151Z,11.60
2023-01-26T07:19:07.906Z,13.20
2023-01-26T07:21:39.070Z,13.37
2023-01-26T07:24:08.144Z,12.80
2023-01-26T07:26:37.306Z,12.70
2023-01-26T07:29:05.095Z,13.00
2023-01-26T07:31:33.048Z,12.90
2023-01-26T07:34:00.859Z,13.30
2023-01-26T07:36:28.910Z,12.73
2023-01-26T07:38:56.739Z,13.07
2023-01-26T07:41:24.518Z,14.40
2023-01-26T07:43:53.723Z,13.43
2023-01-26T07:46:21.613Z,13.90
2023-01-26T07:48:49.615Z,13.40
2023-01-26T07:51:17.520Z,13.43
2023-01-26T07:53:45.288Z,13.37
2023-01-26T07:56:15.988Z,13.40
2023-01-26T07:58:43.858Z,13.30
2023-01-26T08:01:14.633Z,13.53
2023-01-26T08:03:45.421Z,13.40
2023-01-26T08:06:14.975Z,13.10
2023-01-26T08:08:43.831Z,13.90
2023-01-26T08:11:12.717Z,14.00
2023-01-26T08:13:40.531Z,16.10
2023-01-26T08:16:12.020Z,13.50
2023-01-26T08:18:42.265Z,14.17
2023-01-26T08:21:10.881Z,12.70
2023-01-26T08:23:38.928Z,14.53
2023-01-26T08:26:08.878Z,15.93
2023-01-26T08:28:38.085Z,15.00
2023-01-26T08:31:06.782Z,13.30
2023-01-26T08:33:35.752Z,12.93
2023-01-26T08:36:06.359Z,14.07
2023-01-26T08:38:35.115Z,13.00
2023-01-26T08:41:03.853Z,12.90
2023-01-26T08:43:32.084Z,13.60
2023-01-26T08:46:00.128Z,14.87
2023-01-26T08:48:28.405Z,13.60
2023-01-26T08:50:57.219Z,14.63
2023-01-26T08:53:26.766Z,16.27
2023-01-26T08:55:54.560Z,16.03
2023-01-26T08:58:22.323Z,17.37
2023-01-26T09:00:50.161Z,17.83
2023-01-26T09:03:18.053Z,16.50
2023-01-26T09:05:45.885Z,16.50
2023-01-26T09:08:13.708Z,16.63
2023-01-26T09:10:45.167Z,16.47
2023-01-26T09:13:13.225Z,17.10
2023-01-26T09:15:41.019Z,17.10
2023-01-26T09:18:08.858Z,18.20
2023-01-26T09:20:38.396Z,17.40
2023-01-26T09:23:06.453Z,16.20
2023-01-26T09:25:37.971Z,17.13
2023-01-26T09:28:07.895Z,16.33
2023-01-26T09:30:35.824Z,18.17
2023-01-26T09:33:05.828Z,17.27
2023-01-26T09:35:33.884Z,16.87
2023-01-26T09:38:01.701Z,16.57
2023-01-26T09:40:38.142Z,17.37
2023-01-26T09:43:21.961Z,14.80
2023-01-26T09:46:01.510Z,16.97
2023-01-26T09:48:38.775Z,15.50
2023-01-26T09:51:11.360Z,16.93
2023-01-26T09:53:46.752Z,16.47
2023-01-26T09:56:19.353Z,15.57
2023-01-26T09:58:54.557Z,16.87
2023-01-26T10:01:31.207Z,16.00
2023-01-26T10:04:06.313Z,16.37
2023-01-26T10:06:35.229Z,17.93
2023-01-26T10:09:07.164Z,15.90
2023-01-26T10:11:40.008Z,16.57
2023-01-26T10:14:16.647Z,16.70
2023-01-26T10:16:47.693Z,16.03
2023-01-26T10:19:21.849Z,16.13
2023-01-26T10:21:52.777Z,15.80
2023-01-26T10:24:24.025Z,15.93
2023-01-26T10:26:53.336Z,16.00
2023-01-26T10:29:23.261Z,15.30
2023-01-26T10:31:51.073Z,16.50
2023-01-26T10:34:24.322Z,15.30
2023-01-26T10:36:54.528Z,14.90
2023-01-26T10:39:22.282Z,15.53
2023-01-26T10:42:19.163Z,15.40
2023-01-26T10:44:51.371Z,14.13
2023-01-26T10:47:21.409Z,15.00
2023-01-26T10:49:50.026Z,14.70
2023-01-26T10:52:19.233Z,12.90
2023-01-26T10:54:47.158Z,14.10
2023-01-26T10:57:22.414Z,15.17
2023-01-26T10:59:56.007Z,12.87
2023-01-26T11:02:28.209Z,13.87
2023-01-26T11:05:16.564Z,13.60
2023-01-26T11:07:46.080Z,15.07
2023-01-26T11:10:26.622Z,13.93
2023-01-26T11:13:13.203Z,14.43
2023-01-26T11:15:44.126Z,13.33
2023-01-26T11:18:24.716Z,14.00
2023-01-26T11:20:58.958Z,13.53
2023-01-26T11:23:40.640Z,13.17
2023-01-26T11:26:37.808Z,13.70
2023-01-26T11:29:25.909Z,14.40
2023-01-26T11:32:04.773Z,13.40
2023-01-26T11:34:41.087Z,14.10
2023-01-26T11:37:36.531Z,14.00
2023-01-26T11:40:30.961Z,13.87
2023-01-26T11:43:37.767Z,13.87
2023-01-26T11:46:27.969Z,13.07
2023-01-26T11:49:09.424Z,13.70
2023-01-26T11:51:49.679Z,13.57
2023-01-26T11:54:32.165Z,13.63
2023-01-26T11:57:09.299Z,13.13
2023-01-26T11:59:42.519Z,12.90
2023-01-26T12:02:27.493Z,12.37
2023-01-26T12:04:58.784Z,13.50
2023-01-26T12:07:31.226Z,14.00
2023-01-26T12:10:01.462Z,13.67
2023-01-26T12:12:38.349Z,13.40
2023-01-26T12:15:13.671Z,13.90
2023-01-26T12:17:49.039Z,13.60
2023-01-26T12:20:28.417Z,13.30
2023-01-26T12:23:04.521Z,12.50
2023-01-26T12:25:36.521Z,12.10
2023-01-26T12:28:17.961Z,12.57
2023-01-26T12:30:53.097Z,12.27
2023-01-26T12:33:21.041Z,12.67
2023-01-26T12:36:13.564Z,12.70
2023-01-26T12:38:50.098Z,13.40
2023-01-26T12:41:23.485Z,13.27
2023-01-26T12:44:01.583Z,13.53
2023-01-26T12:46:33.259Z,12.63
2023-01-26T12:49:08.517Z,12.87
2023-01-26T12:51:42.355Z,12.10
2023-01-26T12:54:19.258Z,12.13
2023-01-26T12:56:52.351Z,11.83
2023-01-26T12:59:48.235Z,13.23
2023-01-26T13:02:27.355Z,12.90
2023-01-26T13:04:55.733Z,12.30
2023-01-26T13:07:34.952Z,13.20
2023-01-26T13:10:30.219Z,12.93
2023-01-26T13:13:00.385Z,13.60
2023-01-26T13:15:30.387Z,11.53
2023-01-26T13:18:00.701Z,11.30
2023-01-26T13:20:52.460Z,13.00
2023-01-26T13:23:44.331Z,12.17
2023-01-26T13:26:25.366Z,12.90
2023-01-26T13:28:54.354Z,12.30
2023-01-26T13:31:33.819Z,12.53
2023-01-26T13:34:04.373Z,12.63
2023-01-26T13:36:37.672Z,12.03
2023-01-26T13:39:14.320Z,12.60
2023-01-26T13:41:47.426Z,10.80
2023-01-26T13:44:19.426Z,11.77
2023-01-26T13:46:52.931Z,11.80
2023-01-26T13:49:28.226Z,12.23
2023-01-26T13:51:56.120Z,10.90
2023-01-26T13:54:27.617Z,11.90
2023-01-26T13:57:03.392Z,12.40
2023-01-26T13:59:33.058Z,13.03
2023-01-26T14:02:01.364Z,12.07
2023-01-26T14:04:30.899Z,12.80
2023-01-26T14:07:02.237Z,12.80
2023-01-26T14:09:34.122Z,12.07
2023-01-26T14:12:03.337Z,11.20
2023-01-26T14:14:34.821Z,12.20
2023-01-26T14:17:08.058Z,11.10
2023-01-26T14:19:41.056Z,11.73
2023-01-26T14:22:14.839Z,12.20
2023-01-26T14:24:44.550Z,11.00
2023-01-26T14:27:30.829Z,11.57
2023-01-26T14:29:59.418Z,11.40
2023-01-26T14:32:30.023Z,12.00
2023-01-26T14:34:59.872Z,11.07
2023-01-26T14:37:29.113Z,10.90
2023-01-26T14:40:20.871Z,12.30
2023-01-26T14:42:50.761Z,11.30
2023-01-26T14:45:19.373Z,12.10
2023-01-26T14:47:47.293Z,13.63
2023-01-26T14:50:20.570Z,12.50
2023-01-26T14:52:49.059Z,11.80
2023-01-26T14:55:23.668Z,12.10
2023-01-26T14:57:52.004Z,12.70
2023-01-26T15:00:25.468Z,13.17
2023-01-26T15:02:55.698Z,12.20
2023-01-26T15:05:31.657Z,12.47
2023-01-26T15:08:01.265Z,13.17
2023-01-26T15:10:36.437Z,13.83
2023-01-26T15:13:08.183Z,13.10
2023-01-26T15:15:39.583Z,12.27
2023-01-26T15:18:18.996Z,14.80
2023-01-26T15:21:00.125Z,13.33
2023-01-26T15:23:30.804Z,14.67
2023-01-26T15:26:07.481Z,14.23
2023-01-26T15:28:36.571Z,13.90
2023-01-26T15:31:05.259Z,14.07
2023-01-26T15:33:41.252Z,12.80
2023-01-26T15:36:24.438Z,14.63
2023-01-26T15:38:53.597Z,12.90
2023-01-26T15:41:22.747Z,14.50
2023-01-26T15:43:50.519Z,12.23
2023-01-26T15:46:18.334Z,11.43
2023-01-26T15:48:46.884Z,13.17
2023-01-26T15:51:15.307Z,13.30
2023-01-26T15:53:43.302Z,11.90
2023-01-26T15:56:16.089Z,14.10
2023-01-26T15:58:45.235Z,13.77
2023-01-26T16:01:32.153Z,13.33
2023-01-26T16:03:59.922Z,14.17
2023-01-26T16:06:29.244Z,13.43
2023-01-26T16:08:58.152Z,13.60
2023-01-26T16:11:30.953Z,12.93
2023-01-26T16:14:04.232Z,11.90
2023-01-26T16:16:33.058Z,13.37
2023-01-26T16:19:01.072Z,13.63
2023-01-26T16:21:32.948Z,12.40
2023-01-26T16:24:01.273Z,13.23
2023-01-26T16:26:30.345Z,13.47
2023-01-26T16:28:58.351Z,12.23
2023-01-26T16:31:30.604Z,10.90
2023-01-26T16:33:59.894Z,11.63
2023-01-26T16:36:27.886Z,10.93
2023-01-26T16:38:55.752Z,10.30
2023-01-26T16:41:26.321Z,10.60
2023-01-26T16:43:55.748Z,10.83
2023-01-26T16:46:23.853Z,10.93
2023-01-26T16:48:53.736Z,12.07
2023-01-26T16:51:24.882Z,11.47
2023-01-26T16:53:53.322Z,11.43
2023-01-26T16:56:21.593Z,14.40
2023-01-26T16:58:49.820Z,11.70
2023-01-26T17:01:20.265Z,12.37
2023-01-26T17:03:48.978Z,13.00
2023-01-26T17:06:21.007Z,13.70
2023-01-26T17:08:49.185Z,15.57
2023-01-26T17:11:19.252Z,14.50
2023-01-26T17:13:47.722Z,13.03
2023-01-26T17:16:17.414Z,14.27
2023-01-26T17:18:46.034Z,12.50
2023-01-26T17:21:14.398Z,12.77
2023-01-26T17:23:44.716Z,11.73
2023-01-26T17:26:15.199Z,13.57
2023-01-26T17:28:43.119Z,12.47
2023-01-26T17:31:12.228Z,13.20
2023-01-26T17:33:40.614Z,12.20
2023-01-26T17:36:08.925Z,13.57
2023-01-26T17:38:37.154Z,12.87
2023-01-26T17:41:06.616Z,14.10
2023-01-26T17:43:34.993Z,11.90
2023-01-26T17:46:04.892Z,11.77
2023-01-26T17:48:32.948Z,11.00
2023-01-26T17:51:00.774Z,11.20
2023-01-26T17:53:28.850Z,12.33
2023-01-26T17:55:56.673Z,12.20
2023-01-26T17:58:25.863Z,12.80
2023-01-26T18:00:53.809Z,10.60
2023-01-26T18:03:26.144Z,12.60
2023-01-26T18:05:54.530Z,11.13
2023-01-26T18:08:22.948Z,13.37
2023-01-26T18:10:51.150Z,12.83
2023-01-26T18:13:18.930Z,11.20
2023-01-26T18:15:48.066Z,11.87
2023-01-26T18:18:15.889Z,11.00
2023-01-26T18:20:43.689Z,12.37
2023-01-26T18:23:11.470Z,12.00
2023-01-26T18:25:39.536Z,12.10
2023-01-26T18:28:08.327Z,12.43
2023-01-26T18:30:36.256Z,12.30
2023-01-26T18:33:05.703Z,12.97
2023-01-26T18:35:34.231Z,12.53
2023-01-26T18:38:03.196Z,13.20
2023-01-26T18:40:31.063Z,11.70
2023-01-26T18:42:59.015Z,13.60
2023-01-26T18:45:26.930Z,14.13
2023-01-26T18:47:54.734Z,13.30
2023-01-26T18:50:24.143Z,14.40
2023-01-26T18:52:52.502Z,13.73
2023-01-26T18:55:20.318Z,16.13
2023-01-26T18:57:49.381Z,14.23
2023-01-26T19:00:17.926Z,13.10
2023-01-26T19:02:45.687Z,14.97
2023-01-26T19:05:13.802Z,15.63
2023-01-26T19:07:43.521Z,13.60
2023-01-26T19:10:12.057Z,14.20
2023-01-26T19:12:39.852Z,13.20
2023-01-26T19:15:09.543Z,14.40
2023-01-26T19:17:37.579Z,13.93
2023-01-26T19:20:06.350Z,13.53
2023-01-26T19:22:34.168Z,13.17
2023-01-26T19:25:03.319Z,14.83
2023-01-26T19:27:31.846Z,16.23
2023-01-26T19:29:59.670Z,14.57
2023-01-26T19:32:27.462Z,14.87
2023-01-26T19:34:55.273Z,13.83
2023-01-26T19:37:23.077Z,13.93
2023-01-26T19:39:50.875Z,12.43
2023-01-26T19:42:19.989Z,12.63
2023-01-26T19:44:47.779Z,14.37
2023-01-26T19:47:15.545Z,14.00
2023-01-26T19:49:43.425Z,13.87
2023-01-26T19:52:11.281Z,13.57
2023-01-26T19:54:39.063Z,12.87
2023-01-26T19:57:06.882Z,12.37
2023-01-26T19:59:36.026Z,12.07
2023-01-26T20:02:03.820Z,12.13
2023-01-26T20:04:31.624Z,12.67
2023-01-26T20:07:01.950Z,12.20
2023-01-26T20:09:33.304Z,11.30
2023-01-26T20:12:01.100Z,11.50
2023-01-26T20:14:28.963Z,13.00
2023-01-26T20:16:58.074Z,11.80
2023-01-26T20:19:26.202Z,11.43
2023-01-26T20:21:54.015Z,11.03
2023-01-26T20:24:22.414Z,11.50
2023-01-26T20:26:50.259Z,10.40
2023-01-26T20:29:19.481Z,10.50
2023-01-26T20:31:48.783Z,10.07
2023-01-26T20:34:21.069Z,9.60
2023-01-26T20:36:49.548Z,9.50
2023-01-26T20:39:24.966Z,9.53
2023-01-26T20:41:53.515Z,9.00
2023-01-26T20:44:21.366Z,9.00
2023-01-26T20:46:49.979Z,8.80
2023-01-26T20:49:20.354Z,9.80
2023-01-26T20:51:48.642Z,8.23
2023-01-26T20:54:17.868Z,9.17
2023-01-26T20:56:46.595Z,8.70
2023-01-26T20:59:14.413Z,8.10
2023-01-26T21:01:42.222Z,9.20
2023-01-26T21:04:10.027Z,8.80
2023-01-26T21:06:41.550Z,8.80
2023-01-26T21:09:12.646Z,8.07
2023-01-26T21:11:40.799Z,7.77
2023-01-26T21:14:11.904Z,7.50
2023-01-26T21:16:39.746Z,7.70
2023-01-26T21:19:07.544Z,6.97
2023-01-26T21:21:35.392Z,7.47
2023-01-26T21:24:04.990Z,6.37
2023-01-26T21:26:33.134Z,6.83
2023-01-26T21:29:01.626Z,6.67
2023-01-26T21:31:31.623Z,7.17
2023-01-26T21:34:00.474Z,6.50
2023-01-26T21:36:30.698Z,6.13
2023-01-26T21:39:00.186Z,6.90
2023-01-26T21:41:50.203Z,6.80
2023-01-26T21:44:20.046Z,6.10
2023-01-26T21:46:49.956Z,6.93
2023-01-26T21:49:18.759Z,6.13
2023-01-26T21:52:04.271Z,6.30
2023-01-26T21:54:32.282Z,6.20
2023-01-26T21:57:02.814Z,6.20
2023-01-26T21:59:30.349Z,6.27
2023-01-26T22:01:59.335Z,6.00
2023-01-26T22:04:28.932Z,6.30
2023-01-26T22:06:57.551Z,5.80
2023-01-26T22:09:25.912Z,6.20
2023-01-26T22:11:53.718Z,6.40
2023-01-26T22:14:24.915Z,5.97
2023-01-26T22:16:53.136Z,6.40
2023-01-26T22:19:21.155Z,5.70
2023-01-26T22:21:48.935Z,5.53
2023-01-26T22:24:17.983Z,5.40
2023-01-26T22:26:45.845Z,6.67
2023-01-26T22:29:14.570Z,5.93
2023-01-26T22:31:43.788Z,6.30
2023-01-26T22:34:12.283Z,6.27
2023-01-26T22:36:41.043Z,6.07
2023-01-26T22:39:09.383Z,6.20
2023-01-26T22:41:37.674Z,5.63
2023-01-26T22:44:05.642Z,6.40
2023-01-26T22:46:33.940Z,6.90
2023-01-26T22:49:04.668Z,6.40
2023-01-26T22:51:36.854Z,6.83
2023-01-26T22:54:05.227Z,7.10
2023-01-26T22:56:33.450Z,6.80
2023-01-26T22:59:01.666Z,7.00
2023-01-26T23:01:31.398Z,7.73
2023-01-26T23:04:00.619Z,7.00
2023-01-26T23:06:29.989Z,7.20
2023-01-26T23:09:01.021Z,8.07
2023-01-26T23:11:30.158Z,6.90
2023-01-26T23:13:59.363Z,8.23
2023-01-26T23:16:27.732Z,8.70
2023-01-26T23:18:56.933Z,8.03
2023-01-26T23:21:25.806Z,7.17
2023-01-26T23:23:55.110Z,8.17
2023-01-26T23:26:23.671Z,7.53
2023-01-26T23:28:51.505Z,8.80
2023-01-26T23:31:20.173Z,8.90
2023-01-26T23:33:48.476Z,8.47
2023-01-26T23:36:16.837Z,8.30
2023-01-26T23:38:45.653Z,8.23
2023-01-26T23:41:14.873Z,9.07
2023-01-26T23:43:43.104Z,9.67
2023-01-26T23:46:12.256Z,9.33
2023-01-26T23:48:40.125Z,9.13
2023-01-26T23:51:10.438Z,7.77
2023-01-26T23:53:38.647Z,9.40
2023-01-26T23:56:08.878Z,8.13
2023-01-26T23:58:38.521Z,9.60
